Startpagina
METAR-TAF:

METAR-TAF

Vliegvelden :

Niamey, Niger

Luchthaven Diori Hamani

breedte: 13-29N, lengte: 002-10E, hoogte: 223 m

Actueel weer

Dit bericht is 1 uur en het 10 minuten geleden gemaakt, om 20:00 UTC
Wind 4 kt uit het oostnoordoosten
Temperatuur 24°C
Vochtigheid 14%
Druk 1015 hPa
Zicht: 2000 m
verspreid stof

METAR: DRRN 162000Z 06004KT 2000 DU NSC 24/M05 Q1015 NOSIG

Tijdstip: 22:10 (21:10 UTC)

Verwachting

Dit bericht is 4 uur en het 10 minuten geleden gemaakt, om 17:00 UTC
Verwachting geldig van 16 om 18 UTC tot 17 om 24 UTC
Wind 10 kt uit het oosten
Zicht: 2000 m
verspreid stof
Wijzigt naar
van 16 om 22 UTC tot 16 om 24 UTC
Zicht: 3500 m
Wijzigt naar
van 17 om 04 UTC tot 17 om 06 UTC
Zicht: 1800 m
Tijdelijke
van 17 om 08 UTC tot 17 om 13 UTC
Wind 20 kt uit het oosten
Zicht: 0800 m
Stuifstof

TAF: DRRN 161700Z 1618/1724 08010KT 2000 DU NSC BECMG 1622/1624 3500 BECMG 1704/1706 1800 TEMPO 1708/1713 10020KT 0800 BLDU

Waarnemingen en weersverwachtingen van meer dan 4000 vliegvelden (METAR en TAF).

De beschikbare stations zijn de gele en rode punten op de kaart.

Ga met uw muis naar het station om de naam te zien.

Klik dan om waarnemingen en weersverwachtingen te zien.

kaart wijzigen: klik op de groene knoppen met een zwart kruis om in te zoomen, op de groene knop met een streepje om uit te zoomen of op de groene pijlen voor aangrenzende kaarten.


METAR-TAF: